sensor_id;sensor_type;location;lat;lon;timestamp;temperature;humidity
69393;SHT31;56582;44.624;20.378;2023-05-23T00:02:22;16.93;67.30
69393;SHT31;56582;44.624;20.378;2023-05-23T00:04:47;16.99;67.69
69393;SHT31;56582;44.624;20.378;2023-05-23T00:07:13;16.98;67.28
69393;SHT31;56582;44.624;20.378;2023-05-23T00:09:38;16.98;67.27
69393;SHT31;56582;44.624;20.378;2023-05-23T00:12:04;16.91;67.46
69393;SHT31;56582;44.624;20.378;2023-05-23T00:14:30;16.79;67.95
69393;SHT31;56582;44.624;20.378;2023-05-23T00:16:58;16.82;67.92
69393;SHT31;56582;44.624;20.378;2023-05-23T00:19:24;16.82;67.87
69393;SHT31;56582;44.624;20.378;2023-05-23T00:21:50;16.86;67.34
69393;SHT31;56582;44.624;20.378;2023-05-23T00:24:18;16.92;67.11
69393;SHT31;56582;44.624;20.378;2023-05-23T00:26:45;16.93;67.07
69393;SHT31;56582;44.624;20.378;2023-05-23T00:29:10;17.18;78.72
69393;SHT31;56582;44.624;20.378;2023-05-23T00:31:41;17.49;78.97
69393;SHT31;56582;44.624;20.378;2023-05-23T00:34:13;17.67;78.69
69393;SHT31;56582;44.624;20.378;2023-05-23T00:36:39;17.84;77.24
69393;SHT31;56582;44.624;20.378;2023-05-23T00:39:06;17.98;77.52
69393;SHT31;56582;44.624;20.378;2023-05-23T00:41:32;18.09;76.79
69393;SHT31;56582;44.624;20.378;2023-05-23T00:43:58;18.16;77.13
69393;SHT31;56582;44.624;20.378;2023-05-23T00:46:25;18.26;76.83
69393;SHT31;56582;44.624;20.378;2023-05-23T00:48:51;18.33;76.20
69393;SHT31;56582;44.624;20.378;2023-05-23T00:51:17;18.39;75.99
69393;SHT31;56582;44.624;20.378;2023-05-23T00:53:43;18.45;75.84
69393;SHT31;56582;44.624;20.378;2023-05-23T00:56:09;18.45;75.99
69393;SHT31;56582;44.624;20.378;2023-05-23T00:58:36;18.49;75.67
69393;SHT31;56582;44.624;20.378;2023-05-23T01:01:02;18.55;75.36
69393;SHT31;56582;44.624;20.378;2023-05-23T01:03:27;18.57;75.54
69393;SHT31;56582;44.624;20.378;2023-05-23T01:05:55;18.61;75.03
69393;SHT31;56582;44.624;20.378;2023-05-23T01:08:20;18.60;75.43
69393;SHT31;56582;44.624;20.378;2023-05-23T01:10:46;18.60;75.51
69393;SHT31;56582;44.624;20.378;2023-05-23T01:13:45;18.57;74.88
69393;SHT31;56582;44.624;20.378;2023-05-23T01:16:38;18.57;73.34
69393;SHT31;56582;44.624;20.378;2023-05-23T01:19:25;18.39;74.23
69393;SHT31;56582;44.624;20.378;2023-05-23T01:21:59;18.40;74.69
69393;SHT31;56582;44.624;20.378;2023-05-23T01:27:39;18.50;74.44
69393;SHT31;56582;44.624;20.378;2023-05-23T01:30:08;18.56;74.35
69393;SHT31;56582;44.624;20.378;2023-05-23T01:32:35;18.52;74.52
69393;SHT31;56582;44.624;20.378;2023-05-23T01:35:02;18.47;74.75
69393;SHT31;56582;44.624;20.378;2023-05-23T01:37:28;18.42;74.33
69393;SHT31;56582;44.624;20.378;2023-05-23T01:39:54;18.45;75.08
69393;SHT31;56582;44.624;20.378;2023-05-23T01:42:19;18.45;75.38
69393;SHT31;56582;44.624;20.378;2023-05-23T01:44:45;18.42;74.63
69393;SHT31;56582;44.624;20.378;2023-05-23T01:47:12;18.29;73.80
69393;SHT31;56582;44.624;20.378;2023-05-23T01:49:40;18.18;76.59
69393;SHT31;56582;44.624;20.378;2023-05-23T01:52:07;18.19;77.06
69393;SHT31;56582;44.624;20.378;2023-05-23T01:54:34;18.28;76.50
69393;SHT31;56582;44.624;20.378;2023-05-23T01:57:01;18.33;75.74
69393;SHT31;56582;44.624;20.378;2023-05-23T01:59:27;18.32;75.57
69393;SHT31;56582;44.624;20.378;2023-05-23T02:01:52;18.40;75.41
69393;SHT31;56582;44.624;20.378;2023-05-23T02:04:18;18.37;75.40
69393;SHT31;56582;44.624;20.378;2023-05-23T02:06:43;18.40;75.51
69393;SHT31;56582;44.624;20.378;2023-05-23T02:09:09;18.21;74.85
69393;SHT31;56582;44.624;20.378;2023-05-23T02:11:34;17.87;71.94
69393;SHT31;56582;44.624;20.378;2023-05-23T02:14:00;17.27;77.72
69393;SHT31;56582;44.624;20.378;2023-05-23T02:16:27;17.20;75.94
69393;SHT31;56582;44.624;20.378;2023-05-23T02:18:53;17.34;77.90
69393;SHT31;56582;44.624;20.378;2023-05-23T02:21:21;17.47;76.30
69393;SHT31;56582;44.624;20.378;2023-05-23T02:23:46;17.64;77.39
69393;SHT31;56582;44.624;20.378;2023-05-23T02:26:12;17.94;76.78
69393;SHT31;56582;44.624;20.378;2023-05-23T02:28:37;18.04;76.16
69393;SHT31;56582;44.624;20.378;2023-05-23T02:31:03;18.16;76.02
69393;SHT31;56582;44.624;20.378;2023-05-23T02:33:28;18.24;75.84
69393;SHT31;56582;44.624;20.378;2023-05-23T02:35:54;18.30;75.68
69393;SHT31;56582;44.624;20.378;2023-05-23T02:38:19;18.29;75.43
69393;SHT31;56582;44.624;20.378;2023-05-23T02:40:45;18.28;75.38
69393;SHT31;56582;44.624;20.378;2023-05-23T02:43:11;18.22;75.27
69393;SHT31;56582;44.624;20.378;2023-05-23T02:45:36;18.05;75.27
69393;SHT31;56582;44.624;20.378;2023-05-23T02:48:01;17.54;74.61
69393;SHT31;56582;44.624;20.378;2023-05-23T02:50:27;17.44;76.82
69393;SHT31;56582;44.624;20.378;2023-05-23T02:52:52;17.40;77.09
69393;SHT31;56582;44.624;20.378;2023-05-23T02:55:18;17.49;77.30
69393;SHT31;56582;44.624;20.378;2023-05-23T02:57:43;17.60;77.43
69393;SHT31;56582;44.624;20.378;2023-05-23T03:00:09;17.79;81.27
69393;SHT31;56582;44.624;20.378;2023-05-23T03:02:36;17.97;81.15
69393;SHT31;56582;44.624;20.378;2023-05-23T03:05:02;18.04;80.60
69393;SHT31;56582;44.624;20.378;2023-05-23T03:07:28;18.08;80.26
69393;SHT31;56582;44.624;20.378;2023-05-23T03:09:55;18.16;79.85
69393;SHT31;56582;44.624;20.378;2023-05-23T03:12:20;18.16;79.80
69393;SHT31;56582;44.624;20.378;2023-05-23T03:14:45;18.28;79.97
69393;SHT31;56582;44.624;20.378;2023-05-23T03:17:12;18.28;79.61
69393;SHT31;56582;44.624;20.378;2023-05-23T03:19:38;18.28;79.58
69393;SHT31;56582;44.624;20.378;2023-05-23T03:22:03;18.29;79.22
69393;SHT31;56582;44.624;20.378;2023-05-23T03:24:29;18.13;77.92
69393;SHT31;56582;44.624;20.378;2023-05-23T03:26:56;17.92;78.53
69393;SHT31;56582;44.624;20.378;2023-05-23T03:29:21;17.78;78.59
69393;SHT31;56582;44.624;20.378;2023-05-23T03:31:46;17.67;78.78
69393;SHT31;56582;44.624;20.378;2023-05-23T03:34:12;17.57;79.24
69393;SHT31;56582;44.624;20.378;2023-05-23T03:36:37;17.51;79.00
69393;SHT31;56582;44.624;20.378;2023-05-23T03:39:03;17.41;79.10
69393;SHT31;56582;44.624;20.378;2023-05-23T03:41:28;17.34;78.99
69393;SHT31;56582;44.624;20.378;2023-05-23T03:43:54;17.29;79.50
69393;SHT31;56582;44.624;20.378;2023-05-23T03:46:19;17.30;79.28
69393;SHT31;56582;44.624;20.378;2023-05-23T03:48:45;17.23;79.62
69393;SHT31;56582;44.624;20.378;2023-05-23T03:51:10;17.24;79.64
69393;SHT31;56582;44.624;20.378;2023-05-23T03:53:38;17.16;79.32
69393;SHT31;56582;44.624;20.378;2023-05-23T03:56:03;17.18;79.77
69393;SHT31;56582;44.624;20.378;2023-05-23T03:58:28;17.20;79.78
69393;SHT31;56582;44.624;20.378;2023-05-23T04:00:54;17.12;79.41
69393;SHT31;56582;44.624;20.378;2023-05-23T04:03:19;17.05;79.60
69393;SHT31;56582;44.624;20.378;2023-05-23T04:05:45;17.02;79.96
69393;SHT31;56582;44.624;20.378;2023-05-23T04:08:11;17.09;80.31
69393;SHT31;56582;44.624;20.378;2023-05-23T04:10:37;16.98;80.31
69393;SHT31;56582;44.624;20.378;2023-05-23T04:13:02;16.98;80.20
69393;SHT31;56582;44.624;20.378;2023-05-23T04:15:28;16.96;80.40
69393;SHT31;56582;44.624;20.378;2023-05-23T04:17:54;17.03;80.47
69393;SHT31;56582;44.624;20.378;2023-05-23T04:20:20;17.03;80.27
69393;SHT31;56582;44.624;20.378;2023-05-23T04:22:46;17.06;80.19
69393;SHT31;56582;44.624;20.378;2023-05-23T04:25:11;17.15;80.29
69393;SHT31;56582;44.624;20.378;2023-05-23T04:27:38;17.22;79.94
69393;SHT31;56582;44.624;20.378;2023-05-23T04:30:06;17.23;79.99
69393;SHT31;56582;44.624;20.378;2023-05-23T04:32:34;17.24;80.02
69393;SHT31;56582;44.624;20.378;2023-05-23T04:35:00;17.31;79.68
69393;SHT31;56582;44.624;20.378;2023-05-23T04:37:29;17.34;79.86
69393;SHT31;56582;44.624;20.378;2023-05-23T04:39:57;17.47;79.93
69393;SHT31;56582;44.624;20.378;2023-05-23T04:42:24;17.39;84.87
69393;SHT31;56582;44.624;20.378;2023-05-23T04:44:50;17.23;81.87
69393;SHT31;56582;44.624;20.378;2023-05-23T04:47:17;17.41;80.29
69393;SHT31;56582;44.624;20.378;2023-05-23T04:49:43;17.36;80.78
69393;SHT31;56582;44.624;20.378;2023-05-23T04:52:09;17.40;80.65
69393;SHT31;56582;44.624;20.378;2023-05-23T04:54:35;17.63;81.62
69393;SHT31;56582;44.624;20.378;2023-05-23T04:57:01;17.79;80.88
69393;SHT31;56582;44.624;20.378;2023-05-23T04:59:27;17.89;80.79
69393;SHT31;56582;44.624;20.378;2023-05-23T05:01:53;17.95;79.42
69393;SHT31;56582;44.624;20.378;2023-05-23T05:04:18;17.99;79.54
69393;SHT31;56582;44.624;20.378;2023-05-23T05:06:44;17.99;79.44
69393;SHT31;56582;44.624;20.378;2023-05-23T05:09:09;18.12;79.76
69393;SHT31;56582;44.624;20.378;2023-05-23T05:11:35;18.29;79.18
69393;SHT31;56582;44.624;20.378;2023-05-23T05:14:00;18.22;79.06
69393;SHT31;56582;44.624;20.378;2023-05-23T05:16:25;18.39;79.20
69393;SHT31;56582;44.624;20.378;2023-05-23T05:18:51;18.50;80.09
69393;SHT31;56582;44.624;20.378;2023-05-23T05:21:16;18.47;78.41
69393;SHT31;56582;44.624;20.378;2023-05-23T05:23:42;18.63;78.91
69393;SHT31;56582;44.624;20.378;2023-05-23T05:26:08;18.59;79.17
69393;SHT31;56582;44.624;20.378;2023-05-23T05:28:33;18.80;80.38
69393;SHT31;56582;44.624;20.378;2023-05-23T05:31:00;19.03;78.19
69393;SHT31;56582;44.624;20.378;2023-05-23T05:33:29;19.01;79.52
69393;SHT31;56582;44.624;20.378;2023-05-23T05:36:00;19.03;77.57
69393;SHT31;56582;44.624;20.378;2023-05-23T05:38:26;18.95;76.22
69393;SHT31;56582;44.624;20.378;2023-05-23T05:40:51;19.04;77.93
69393;SHT31;56582;44.624;20.378;2023-05-23T05:43:17;19.10;76.13
69393;SHT31;56582;44.624;20.378;2023-05-23T05:45:42;19.21;76.42
69393;SHT31;56582;44.624;20.378;2023-05-23T05:48:08;19.31;76.15
69393;SHT31;56582;44.624;20.378;2023-05-23T05:50:33;19.41;76.02
69393;SHT31;56582;44.624;20.378;2023-05-23T05:52:58;19.49;73.99
69393;SHT31;56582;44.624;20.378;2023-05-23T05:55:24;19.52;73.89
69393;SHT31;56582;44.624;20.378;2023-05-23T05:57:49;19.77;74.44
69393;SHT31;56582;44.624;20.378;2023-05-23T06:00:15;19.93;73.68
69393;SHT31;56582;44.624;20.378;2023-05-23T06:02:43;20.07;74.16
69393;SHT31;56582;44.624;20.378;2023-05-23T06:05:09;20.11;73.73
69393;SHT31;56582;44.624;20.378;2023-05-23T06:07:39;20.13;74.98
69393;SHT31;56582;44.624;20.378;2023-05-23T06:10:05;20.32;75.04
69393;SHT31;56582;44.624;20.378;2023-05-23T06:12:32;20.58;73.00
69393;SHT31;56582;44.624;20.378;2023-05-23T06:14:57;20.76;72.97
69393;SHT31;56582;44.624;20.378;2023-05-23T06:17:22;20.83;73.21
69393;SHT31;56582;44.624;20.378;2023-05-23T06:19:48;20.95;72.97
69393;SHT31;56582;44.624;20.378;2023-05-23T06:22:13;21.09;72.74
69393;SHT31;56582;44.624;20.378;2023-05-23T06:24:39;21.40;71.48
69393;SHT31;56582;44.624;20.378;2023-05-23T06:27:04;21.44;70.43
69393;SHT31;56582;44.624;20.378;2023-05-23T06:29:30;21.53;70.57
69393;SHT31;56582;44.624;20.378;2023-05-23T06:31:56;21.64;71.21
69393;SHT31;56582;44.624;20.378;2023-05-23T06:34:22;21.71;70.36
69393;SHT31;56582;44.624;20.378;2023-05-23T06:36:47;21.64;71.59
69393;SHT31;56582;44.624;20.378;2023-05-23T06:39:13;21.67;71.35
69393;SHT31;56582;44.624;20.378;2023-05-23T06:41:39;21.77;69.77
69393;SHT31;56582;44.624;20.378;2023-05-23T06:44:04;21.84;69.10
69393;SHT31;56582;44.624;20.378;2023-05-23T06:46:30;21.81;69.34
69393;SHT31;56582;44.624;20.378;2023-05-23T06:48:55;21.81;69.01
69393;SHT31;56582;44.624;20.378;2023-05-23T06:51:22;22.06;69.96
69393;SHT31;56582;44.624;20.378;2023-05-23T06:53:48;22.22;70.41
69393;SHT31;56582;44.624;20.378;2023-05-23T06:56:13;22.06;70.98
69393;SHT31;56582;44.624;20.378;2023-05-23T06:58:39;22.26;70.19
69393;SHT31;56582;44.624;20.378;2023-05-23T07:01:05;22.33;70.12
69393;SHT31;56582;44.624;20.378;2023-05-23T07:03:31;22.39;68.15
69393;SHT31;56582;44.624;20.378;2023-05-23T07:05:56;22.66;69.18
69393;SHT31;56582;44.624;20.378;2023-05-23T07:08:22;22.80;68.33
69393;SHT31;56582;44.624;20.378;2023-05-23T07:10:47;22.74;68.90
69393;SHT31;56582;44.624;20.378;2023-05-23T07:13:13;22.59;69.56
69393;SHT31;56582;44.624;20.378;2023-05-23T07:15:38;22.50;67.43
69393;SHT31;56582;44.624;20.378;2023-05-23T07:18:04;22.28;66.59
69393;SHT31;56582;44.624;20.378;2023-05-23T07:20:31;22.23;69.28
69393;SHT31;56582;44.624;20.378;2023-05-23T07:22:57;22.52;67.48
69393;SHT31;56582;44.624;20.378;2023-05-23T07:25:23;22.52;67.64
69393;SHT31;56582;44.624;20.378;2023-05-23T07:27:48;22.54;65.45
69393;SHT31;56582;44.624;20.378;2023-05-23T07:30:14;22.76;68.38
69393;SHT31;56582;44.624;20.378;2023-05-23T07:32:40;22.76;66.59
69393;SHT31;56582;44.624;20.378;2023-05-23T07:35:06;23.01;63.35
69393;SHT31;56582;44.624;20.378;2023-05-23T07:37:31;23.16;63.58
69393;SHT31;56582;44.624;20.378;2023-05-23T07:39:57;23.31;65.24
69393;SHT31;56582;44.624;20.378;2023-05-23T07:42:22;23.25;62.07
69393;SHT31;56582;44.624;20.378;2023-05-23T07:44:48;23.55;61.99
69393;SHT31;56582;44.624;20.378;2023-05-23T07:47:13;23.61;61.30
69393;SHT31;56582;44.624;20.378;2023-05-23T07:49:39;23.62;61.90
69393;SHT31;56582;44.624;20.378;2023-05-23T07:52:04;23.79;62.55
69393;SHT31;56582;44.624;20.378;2023-05-23T07:54:31;23.77;63.37
69393;SHT31;56582;44.624;20.378;2023-05-23T07:56:56;23.90;63.17
69393;SHT31;56582;44.624;20.378;2023-05-23T07:59:22;23.79;61.55
69393;SHT31;56582;44.624;20.378;2023-05-23T08:01:47;24.01;64.36
69393;SHT31;56582;44.624;20.378;2023-05-23T08:04:16;24.13;66.05
69393;SHT31;56582;44.624;20.378;2023-05-23T08:06:41;24.34;61.61
69393;SHT31;56582;44.624;20.378;2023-05-23T08:09:07;24.38;61.68
69393;SHT31;56582;44.624;20.378;2023-05-23T08:11:34;24.40;61.80
69393;SHT31;56582;44.624;20.378;2023-05-23T08:14:00;24.52;62.33
69393;SHT31;56582;44.624;20.378;2023-05-23T08:16:26;24.65;60.24
69393;SHT31;56582;44.624;20.378;2023-05-23T08:18:52;24.76;61.12
69393;SHT31;56582;44.624;20.378;2023-05-23T08:21:17;24.82;58.43
69393;SHT31;56582;44.624;20.378;2023-05-23T08:23:43;24.86;60.16
69393;SHT31;56582;44.624;20.378;2023-05-23T08:26:08;24.90;60.62
69393;SHT31;56582;44.624;20.378;2023-05-23T08:28:33;24.95;58.66
69393;SHT31;56582;44.624;20.378;2023-05-23T08:30:59;24.96;61.00
69393;SHT31;56582;44.624;20.378;2023-05-23T08:33:25;25.12;62.74
69393;SHT31;56582;44.624;20.378;2023-05-23T08:35:50;24.93;58.43
69393;SHT31;56582;44.624;20.378;2023-05-23T08:38:16;25.05;58.55
69393;SHT31;56582;44.624;20.378;2023-05-23T08:40:47;25.07;60.17
69393;SHT31;56582;44.624;20.378;2023-05-23T08:43:13;24.73;56.37
69393;SHT31;56582;44.624;20.378;2023-05-23T08:45:39;24.72;59.27
69393;SHT31;56582;44.624;20.378;2023-05-23T08:48:07;24.83;58.86
69393;SHT31;56582;44.624;20.378;2023-05-23T08:50:36;24.89;59.60
69393;SHT31;56582;44.624;20.378;2023-05-23T08:53:05;25.27;61.24
69393;SHT31;56582;44.624;20.378;2023-05-23T08:55:36;25.40;60.78
69393;SHT31;56582;44.624;20.378;2023-05-23T08:58:02;25.56;59.74
69393;SHT31;56582;44.624;20.378;2023-05-23T09:00:27;25.75;60.68
69393;SHT31;56582;44.624;20.378;2023-05-23T09:02:54;25.67;58.02
69393;SHT31;56582;44.624;20.378;2023-05-23T09:05:20;25.77;62.13
69393;SHT31;56582;44.624;20.378;2023-05-23T09:07:46;25.78;58.97
69393;SHT31;56582;44.624;20.378;2023-05-23T09:10:14;25.56;56.64
69393;SHT31;56582;44.624;20.378;2023-05-23T09:12:44;25.38;59.65
69393;SHT31;56582;44.624;20.378;2023-05-23T09:15:10;25.23;57.09
69393;SHT31;56582;44.624;20.378;2023-05-23T09:17:36;25.12;56.44
69393;SHT31;56582;44.624;20.378;2023-05-23T09:20:03;25.17;55.27
69393;SHT31;56582;44.624;20.378;2023-05-23T09:22:29;25.07;55.85
69393;SHT31;56582;44.624;20.378;2023-05-23T09:24:55;25.12;51.86
69393;SHT31;56582;44.624;20.378;2023-05-23T09:27:21;25.40;53.32
69393;SHT31;56582;44.624;20.378;2023-05-23T09:29:48;25.56;53.81
69393;SHT31;56582;44.624;20.378;2023-05-23T09:32:18;25.64;53.03
69393;SHT31;56582;44.624;20.378;2023-05-23T09:35:00;25.88;54.31
69393;SHT31;56582;44.624;20.378;2023-05-23T09:37:30;26.22;53.13
69393;SHT31;56582;44.624;20.378;2023-05-23T09:40:04;26.47;55.13
69393;SHT31;56582;44.624;20.378;2023-05-23T09:42:33;26.59;55.50
69393;SHT31;56582;44.624;20.378;2023-05-23T09:44:59;26.86;53.66
69393;SHT31;56582;44.624;20.378;2023-05-23T09:47:24;26.84;54.62
69393;SHT31;56582;44.624;20.378;2023-05-23T09:49:51;26.84;49.50
69393;SHT31;56582;44.624;20.378;2023-05-23T09:52:16;26.64;50.90
69393;SHT31;56582;44.624;20.378;2023-05-23T09:54:44;26.57;52.73
69393;SHT31;56582;44.624;20.378;2023-05-23T09:57:11;26.59;53.35
69393;SHT31;56582;44.624;20.378;2023-05-23T09:59:40;26.86;54.13
69393;SHT31;56582;44.624;20.378;2023-05-23T10:02:15;26.74;54.01
69393;SHT31;56582;44.624;20.378;2023-05-23T10:04:41;26.61;50.33
69393;SHT31;56582;44.624;20.378;2023-05-23T10:07:13;26.65;51.80
69393;SHT31;56582;44.624;20.378;2023-05-23T10:09:46;26.72;49.92
69393;SHT31;56582;44.624;20.378;2023-05-23T10:14:58;26.73;48.51
69393;SHT31;56582;44.624;20.378;2023-05-23T10:20:03;26.65;48.03
69393;SHT31;56582;44.624;20.378;2023-05-23T10:22:35;26.86;53.05
69393;SHT31;56582;44.624;20.378;2023-05-23T10:25:03;26.90;48.06
69393;SHT31;56582;44.624;20.378;2023-05-23T10:27:30;27.05;48.89
69393;SHT31;56582;44.624;20.378;2023-05-23T10:29:56;26.23;51.01
69393;SHT31;56582;44.624;20.378;2023-05-23T10:32:23;25.63;52.03
69393;SHT31;56582;44.624;20.378;2023-05-23T10:41:04;26.23;50.68
69393;SHT31;56582;44.624;20.378;2023-05-23T10:45:56;26.46;50.11
69393;SHT31;56582;44.624;20.378;2023-05-23T10:48:32;26.74;52.78
69393;SHT31;56582;44.624;20.378;2023-05-23T10:51:11;26.33;50.29
69393;SHT31;56582;44.624;20.378;2023-05-23T10:53:40;26.39;51.39
69393;SHT31;56582;44.624;20.378;2023-05-23T10:56:07;26.39;50.53
69393;SHT31;56582;44.624;20.378;2023-05-23T10:58:35;26.29;50.53
69393;SHT31;56582;44.624;20.378;2023-05-23T11:01:14;26.28;50.01
69393;SHT31;56582;44.624;20.378;2023-05-23T11:06:28;26.64;48.09
69393;SHT31;56582;44.624;20.378;2023-05-23T11:09:02;26.94;50.13
69393;SHT31;56582;44.624;20.378;2023-05-23T11:12:06;26.73;48.38
69393;SHT31;56582;44.624;20.378;2023-05-23T11:14:52;26.54;45.27
69393;SHT31;56582;44.624;20.378;2023-05-23T11:17:29;26.83;44.12
69393;SHT31;56582;44.624;20.378;2023-05-23T11:19:58;26.64;43.87
69393;SHT31;56582;44.624;20.378;2023-05-23T11:22:27;26.65;45.63
69393;SHT31;56582;44.624;20.378;2023-05-23T11:24:57;26.64;46.23
69393;SHT31;56582;44.624;20.378;2023-05-23T11:27:33;26.60;44.52
69393;SHT31;56582;44.624;20.378;2023-05-23T11:30:11;26.95;46.40
69393;SHT31;56582;44.624;20.378;2023-05-23T11:32:42;27.10;44.02
69393;SHT31;56582;44.624;20.378;2023-05-23T11:35:09;27.31;42.93
69393;SHT31;56582;44.624;20.378;2023-05-23T11:37:35;26.76;43.09
69393;SHT31;56582;44.624;20.378;2023-05-23T11:40:39;26.86;45.22
69393;SHT31;56582;44.624;20.378;2023-05-23T11:43:06;26.76;46.13
69393;SHT31;56582;44.624;20.378;2023-05-23T11:45:33;27.04;41.05
69393;SHT31;56582;44.624;20.378;2023-05-23T11:48:09;26.94;42.09
69393;SHT31;56582;44.624;20.378;2023-05-23T11:50:50;26.61;43.94
69393;SHT31;56582;44.624;20.378;2023-05-23T11:53:17;26.79;44.28
69393;SHT31;56582;44.624;20.378;2023-05-23T11:55:57;27.08;45.25
69393;SHT31;56582;44.624;20.378;2023-05-23T11:58:33;27.45;47.59
69393;SHT31;56582;44.624;20.378;2023-05-23T12:01:03;27.45;47.84
69393;SHT31;56582;44.624;20.378;2023-05-23T12:03:29;27.07;46.14
69393;SHT31;56582;44.624;20.378;2023-05-23T12:05:56;27.11;44.69
69393;SHT31;56582;44.624;20.378;2023-05-23T12:08:21;26.84;44.98
69393;SHT31;56582;44.624;20.378;2023-05-23T12:10:52;26.98;44.23
69393;SHT31;56582;44.624;20.378;2023-05-23T12:13:18;27.11;48.22
69393;SHT31;56582;44.624;20.378;2023-05-23T12:15:44;27.27;44.36
69393;SHT31;56582;44.624;20.378;2023-05-23T12:18:11;26.88;42.55
69393;SHT31;56582;44.624;20.378;2023-05-23T12:20:37;26.83;47.19
69393;SHT31;56582;44.624;20.378;2023-05-23T12:23:05;26.72;42.91
69393;SHT31;56582;44.624;20.378;2023-05-23T12:25:40;26.97;42.77
69393;SHT31;56582;44.624;20.378;2023-05-23T12:28:06;27.01;42.54
69393;SHT31;56582;44.624;20.378;2023-05-23T12:30:40;27.01;44.78
69393;SHT31;56582;44.624;20.378;2023-05-23T12:33:09;27.35;46.68
69393;SHT31;56582;44.624;20.378;2023-05-23T12:35:36;27.42;45.38
69393;SHT31;56582;44.624;20.378;2023-05-23T12:38:04;27.37;42.83
69393;SHT31;56582;44.624;20.378;2023-05-23T12:40:31;27.29;43.47
69393;SHT31;56582;44.624;20.378;2023-05-23T12:42:56;27.38;43.64
69393;SHT31;56582;44.624;20.378;2023-05-23T12:45:33;27.52;44.03
69393;SHT31;56582;44.624;20.378;2023-05-23T12:47:59;27.69;42.82
69393;SHT31;56582;44.624;20.378;2023-05-23T12:50:25;27.60;45.50
69393;SHT31;56582;44.624;20.378;2023-05-23T12:52:50;27.50;43.87
69393;SHT31;56582;44.624;20.378;2023-05-23T12:55:16;27.55;43.60
69393;SHT31;56582;44.624;20.378;2023-05-23T12:57:42;27.12;44.04
69393;SHT31;56582;44.624;20.378;2023-05-23T13:00:09;27.00;45.57
69393;SHT31;56582;44.624;20.378;2023-05-23T13:02:34;27.05;45.49
69393;SHT31;56582;44.624;20.378;2023-05-23T13:05:00;27.38;46.90
69393;SHT31;56582;44.624;20.378;2023-05-23T13:07:25;27.67;46.36
69393;SHT31;56582;44.624;20.378;2023-05-23T13:09:51;27.67;44.68
69393;SHT31;56582;44.624;20.378;2023-05-23T13:12:16;27.67;43.84
69393;SHT31;56582;44.624;20.378;2023-05-23T13:14:42;27.65;45.28
69393;SHT31;56582;44.624;20.378;2023-05-23T13:17:07;27.59;45.44
69393;SHT31;56582;44.624;20.378;2023-05-23T13:19:33;27.10;44.36
69393;SHT31;56582;44.624;20.378;2023-05-23T13:21:58;27.37;43.81
69393;SHT31;56582;44.624;20.378;2023-05-23T13:24:25;27.39;45.29
69393;SHT31;56582;44.624;20.378;2023-05-23T13:26:50;27.08;43.88
69393;SHT31;56582;44.624;20.378;2023-05-23T13:29:16;27.01;42.96
69393;SHT31;56582;44.624;20.378;2023-05-23T13:31:41;27.00;44.61
69393;SHT31;56582;44.624;20.378;2023-05-23T13:34:07;27.18;45.65
69393;SHT31;56582;44.624;20.378;2023-05-23T13:36:33;27.32;43.92
69393;SHT31;56582;44.624;20.378;2023-05-23T13:38:59;27.50;44.43
69393;SHT31;56582;44.624;20.378;2023-05-23T13:41:25;27.58;44.09
69393;SHT31;56582;44.624;20.378;2023-05-23T13:43:51;26.88;44.80
69393;SHT31;56582;44.624;20.378;2023-05-23T13:46:17;26.84;47.38
69393;SHT31;56582;44.624;20.378;2023-05-23T13:48:42;26.97;46.78
69393;SHT31;56582;44.624;20.378;2023-05-23T13:51:08;27.22;47.34
69393;SHT31;56582;44.624;20.378;2023-05-23T13:53:33;26.80;44.87
69393;SHT31;56582;44.624;20.378;2023-05-23T13:55:58;26.86;45.48
69393;SHT31;56582;44.624;20.378;2023-05-23T13:58:24;26.93;46.37
69393;SHT31;56582;44.624;20.378;2023-05-23T14:00:49;26.77;45.86
69393;SHT31;56582;44.624;20.378;2023-05-23T14:03:15;26.91;45.83
69393;SHT31;56582;44.624;20.378;2023-05-23T14:05:40;27.08;47.74
69393;SHT31;56582;44.624;20.378;2023-05-23T14:08:06;26.88;48.21
69393;SHT31;56582;44.624;20.378;2023-05-23T14:10:31;26.94;49.36
69393;SHT31;56582;44.624;20.378;2023-05-23T14:12:58;26.88;47.76
69393;SHT31;56582;44.624;20.378;2023-05-23T14:15:23;27.12;47.23
69393;SHT31;56582;44.624;20.378;2023-05-23T14:17:48;27.07;47.15
69393;SHT31;56582;44.624;20.378;2023-05-23T14:20:20;27.22;48.98
69393;SHT31;56582;44.624;20.378;2023-05-23T14:22:46;27.48;48.77
69393;SHT31;56582;44.624;20.378;2023-05-23T14:25:11;27.18;47.36
69393;SHT31;56582;44.624;20.378;2023-05-23T14:27:37;27.38;47.46
69393;SHT31;56582;44.624;20.378;2023-05-23T14:30:04;26.95;46.63
69393;SHT31;56582;44.624;20.378;2023-05-23T14:32:30;27.27;45.61
69393;SHT31;56582;44.624;20.378;2023-05-23T14:34:59;27.11;47.04
69393;SHT31;56582;44.624;20.378;2023-05-23T14:37:25;27.24;47.06
69393;SHT31;56582;44.624;20.378;2023-05-23T14:39:50;27.32;46.59
69393;SHT31;56582;44.624;20.378;2023-05-23T14:42:15;27.20;45.54
69393;SHT31;56582;44.624;20.378;2023-05-23T14:44:41;26.73;47.46
69393;SHT31;56582;44.624;20.378;2023-05-23T14:47:06;26.59;48.58
69393;SHT31;56582;44.624;20.378;2023-05-23T14:49:32;27.01;46.96
69393;SHT31;56582;44.624;20.378;2023-05-23T14:51:57;27.05;46.73
69393;SHT31;56582;44.624;20.378;2023-05-23T14:54:23;26.87;46.92
69393;SHT31;56582;44.624;20.378;2023-05-23T14:56:48;27.04;46.03
69393;SHT31;56582;44.624;20.378;2023-05-23T14:59:15;27.04;45.81
69393;SHT31;56582;44.624;20.378;2023-05-23T15:01:41;27.14;46.01
69393;SHT31;56582;44.624;20.378;2023-05-23T15:04:07;27.24;45.68
69393;SHT31;56582;44.624;20.378;2023-05-23T15:06:33;27.24;49.54
69393;SHT31;56582;44.624;20.378;2023-05-23T15:08:58;26.67;45.57
69393;SHT31;56582;44.624;20.378;2023-05-23T15:11:24;26.90;47.32
69393;SHT31;56582;44.624;20.378;2023-05-23T15:13:50;26.77;46.97
69393;SHT31;56582;44.624;20.378;2023-05-23T15:16:15;26.74;47.53
69393;SHT31;56582;44.624;20.378;2023-05-23T15:18:42;26.65;46.14
69393;SHT31;56582;44.624;20.378;2023-05-23T15:21:07;26.69;46.10
69393;SHT31;56582;44.624;20.378;2023-05-23T15:23:33;26.63;45.38
69393;SHT31;56582;44.624;20.378;2023-05-23T15:25:58;26.73;46.80
69393;SHT31;56582;44.624;20.378;2023-05-23T15:28:23;26.88;46.06
69393;SHT31;56582;44.624;20.378;2023-05-23T15:30:49;27.12;47.14
69393;SHT31;56582;44.624;20.378;2023-05-23T15:33:14;27.01;46.48
69393;SHT31;56582;44.624;20.378;2023-05-23T15:35:40;26.90;47.05